Time;durP1;ratioP1;P1;durP2;ratioP2;P2;SDS_P1;SDS_P2;PMS_P1;PMS_P2;Temp;Humidity;BMP_temperature;BMP_pressure;BME280_temperature;BME280_humidity;BME280_pressure;Samples;Min_cycle;Max_cycle;Signal;HPM_P1;HPM_P2
2022/01/25 00:15:07;;;;;;;84.13;62.70;;;;;;;;;;5038820;28;20033;-84
2022/01/25 00:27:25;;;;;;;89.87;63.27;;;;;;;;;;5042621;28;20033;-85
2022/01/25 00:30:22;;;;;;;86.40;62.38;;;;;;;;;;5004410;28;20026;-85
2022/01/25 00:32:42;;;;;;;91.45;65.22;;;;;;;;;;5032024;28;20370;-86
2022/01/25 00:35:07;;;;;;;95.43;63.72;;;;;;;;;;5025761;28;20067;-84
2022/01/25 00:37:32;;;;;;;92.77;64.77;;;;;;;;;;5028482;28;20124;-84
2022/01/25 00:39:57;;;;;;;89.63;64.17;;;;;;;;;;5024077;28;20018;-85
2022/01/25 00:44:49;;;;;;;90.88;64.45;;;;;;;;;;5120574;22;20046;-82
2022/01/25 00:47:16;;;;;;;92.67;64.90;;;;;;;;;;5020733;28;20375;-80
2022/01/25 00:49:43;;;;;;;92.03;64.68;;;;;;;;;;5020844;28;20017;-80
2022/01/25 00:53:52;;;;;;;97.60;66.85;;;;;;;;;;5020883;28;20025;-81
2022/01/25 00:55:03;;;;;;;98.82;66.70;;;;;;;;;;5034349;28;20022;-80
2022/01/25 00:57:28;;;;;;;99.03;66.60;;;;;;;;;;5020645;28;20394;-82
2022/01/25 00:59:54;;;;;;;103.43;67.47;;;;;;;;;;5021408;28;20025;-81
2022/01/25 01:02:19;;;;;;;96.20;66.22;;;;;;;;;;5025031;28;20033;-80
2022/01/25 01:04:46;;;;;;;99.00;68.03;;;;;;;;;;5016318;28;20340;-81
2022/01/25 01:07:14;;;;;;;104.68;66.20;;;;;;;;;;5024877;28;20014;-80
2022/01/25 01:09:41;;;;;;;105.72;67.72;;;;;;;;;;5046913;28;20017;-83
2022/01/25 01:12:14;;;;;;;105.30;67.95;;;;;;;;;;5039555;28;20100;-80
2022/01/25 01:14:59;;;;;;;108.22;67.80;;;;;;;;;;5017970;28;20505;-81
2022/01/25 01:41:56;;;;;;;113.87;67.67;;;;;;;;;;5037944;28;20033;-81
2022/01/25 01:44:26;;;;;;;108.85;69.63;;;;;;;;;;5033260;28;20487;-79
2022/01/25 01:47:06;;;;;;;113.38;71.45;;;;;;;;;;5018985;28;20050;-79
2022/01/25 01:49:38;;;;;;;106.65;69.13;;;;;;;;;;5019450;28;20029;-78
2022/01/25 01:52:04;;;;;;;111.55;68.57;;;;;;;;;;5019214;28;20040;-80
2022/01/25 01:54:29;;;;;;;123.97;73.60;;;;;;;;;;5014030;28;20398;-79
2022/01/25 01:56:54;;;;;;;117.03;69.07;;;;;;;;;;5023773;28;20018;-81
2022/01/25 01:59:19;;;;;;;120.83;71.03;;;;;;;;;;5021120;28;20052;-79
2022/01/25 02:01:46;;;;;;;102.63;68.47;;;;;;;;;;5021156;28;20458;-80
2022/01/25 02:04:12;;;;;;;119.93;70.72;;;;;;;;;;5018861;28;20044;-79
2022/01/25 02:06:37;;;;;;;112.60;70.88;;;;;;;;;;5036685;28;20463;-81
2022/01/25 02:09:06;;;;;;;111.93;70.70;;;;;;;;;;5022844;28;20022;-80
2022/01/25 02:11:31;;;;;;;118.80;71.22;;;;;;;;;;5021226;28;20497;-80
2022/01/25 02:14:02;;;;;;;118.37;72.93;;;;;;;;;;5023826;28;20052;-80
2022/01/25 02:16:41;;;;;;;106.68;70.22;;;;;;;;;;5017684;28;20441;-80
2022/01/25 02:24:35;;;;;;;112.90;70.35;;;;;;;;;;5027127;28;20036;-81
2022/01/25 02:27:01;;;;;;;111.90;70.37;;;;;;;;;;5023412;28;20022;-81
2022/01/25 02:29:26;;;;;;;116.85;70.97;;;;;;;;;;5041982;28;20029;-81
2022/01/25 02:31:52;;;;;;;120.47;72.63;;;;;;;;;;5024792;28;20076;-80
2022/01/25 02:34:17;;;;;;;112.23;71.20;;;;;;;;;;5036201;28;20100;-79
2022/01/25 02:36:42;;;;;;;110.23;67.27;;;;;;;;;;5032900;28;20113;-80
2022/01/25 02:39:08;;;;;;;112.27;69.70;;;;;;;;;;5013334;28;20022;-81
2022/01/25 02:41:34;;;;;;;120.00;70.20;;;;;;;;;;5021768;28;20025;-82
2022/01/25 02:43:59;;;;;;;120.13;70.45;;;;;;;;;;5018571;28;20036;-81
2022/01/25 02:49:00;;;;;;;112.07;70.93;;;;;;;;;;5033231;28;20026;-81
2022/01/25 02:51:34;;;;;;;112.75;68.47;;;;;;;;;;5020840;28;20517;-80
2022/01/25 02:54:00;;;;;;;109.50;71.25;;;;;;;;;;5017410;28;20572;-81
2022/01/25 02:56:26;;;;;;;115.83;71.80;;;;;;;;;;5036560;28;20092;-81
2022/01/25 02:58:51;;;;;;;112.07;68.70;;;;;;;;;;5016979;28;20029;-81
2022/01/25 03:01:17;;;;;;;116.80;70.93;;;;;;;;;;5024211;28;20022;-80
2022/01/25 03:03:42;;;;;;;126.50;72.17;;;;;;;;;;5037668;28;20471;-81
2022/01/25 03:06:08;;;;;;;109.27;68.67;;;;;;;;;;5018341;28;20037;-80
2022/01/25 03:08:33;;;;;;;130.43;73.23;;;;;;;;;;5019130;28;20022;-79
2022/01/25 03:10:58;;;;;;;115.70;69.77;;;;;;;;;;5019097;28;20387;-80
2022/01/25 03:13:30;;;;;;;117.93;71.67;;;;;;;;;;5033521;28;20028;-80
2022/01/25 03:16:17;;;;;;;126.10;71.20;;;;;;;;;;5016185;28;20099;-79
2022/01/25 03:18:46;;;;;;;117.10;70.67;;;;;;;;;;5007226;28;20017;-79
2022/01/25 03:21:19;;;;;;;110.63;69.07;;;;;;;;;;5044375;28;20037;-80
2022/01/25 03:23:45;;;;;;;129.82;74.72;;;;;;;;;;5029300;28;20024;-81
2022/01/25 03:26:10;;;;;;;122.90;71.10;;;;;;;;;;5019278;28;20017;-80
2022/01/25 03:28:35;;;;;;;119.67;71.57;;;;;;;;;;5020977;28;20314;-79
2022/01/25 03:31:01;;;;;;;111.63;68.97;;;;;;;;;;5023239;28;20108;-81
2022/01/25 03:33:26;;;;;;;121.37;72.70;;;;;;;;;;5022368;28;20021;-80
2022/01/25 03:35:51;;;;;;;114.60;71.07;;;;;;;;;;5020284;28;20021;-79
2022/01/25 03:38:17;;;;;;;118.77;72.70;;;;;;;;;;5026671;28;20082;-82
2022/01/25 03:40:42;;;;;;;106.57;70.87;;;;;;;;;;5027533;28;20382;-78
2022/01/25 03:43:08;;;;;;;114.70;70.60;;;;;;;;;;5025904;28;20029;-78
2022/01/25 03:45:36;;;;;;;;;;;;;;;;;;5025475;28;20037;-78
2022/01/25 03:50:36;;;;;;;116.70;71.88;;;;;;;;;;5045315;28;20048;-80
2022/01/25 03:53:01;;;;;;;126.67;74.07;;;;;;;;;;5044080;28;20025;-79
2022/01/25 03:55:26;;;;;;;111.20;69.63;;;;;;;;;;5025052;28;20034;-80
2022/01/25 03:57:51;;;;;;;118.30;70.23;;;;;;;;;;5025669;28;20032;-80
2022/01/25 04:00:17;;;;;;;126.07;71.50;;;;;;;;;;5026512;28;20032;-80
2022/01/25 04:02:50;;;;;;;129.60;74.30;;;;;;;;;;5033627;28;20029;-79
2022/01/25 04:05:22;;;;;;;119.93;71.75;;;;;;;;;;5028971;28;20017;-78
2022/01/25 04:07:50;;;;;;;120.60;72.80;;;;;;;;;;5036539;28;20063;-79
2022/01/25 04:10:17;;;;;;;119.75;71.53;;;;;;;;;;5038264;28;20033;-79
2022/01/25 04:12:43;;;;;;;123.20;71.95;;;;;;;;;;5038118;28;20019;-80
2022/01/25 04:15:08;;;;;;;120.60;72.30;;;;;;;;;;5040740;28;20018;-80
2022/01/25 04:17:35;;;;;;;122.80;70.15;;;;;;;;;;5039337;28;20029;-79
2022/01/25 04:20:26;;;;;;;118.50;73.03;;;;;;;;;;5035261;28;20049;-79
2022/01/25 04:25:36;;;;;;;123.70;72.18;;;;;;;;;;5052953;28;20125;-78
2022/01/25 04:28:01;;;;;;;122.00;70.73;;;;;;;;;;5053974;28;20013;-80
2022/01/25 04:30:26;;;;;;;118.50;73.13;;;;;;;;;;5039864;28;20021;-79
2022/01/25 04:33:01;;;;;;;122.77;72.87;;;;;;;;;;5052225;28;20449;-80
2022/01/25 04:49:05;;;;;;;116.35;72.65;;;;;;;;;;5042646;28;20514;-80
2022/01/25 04:56:51;;;;;;;118.13;71.25;;;;;;;;;;4998016;28;20472;-81
2022/01/25 05:01:50;;;;;;;113.43;71.38;;;;;;;;;;5035508;28;20022;-80
2022/01/25 05:04:23;;;;;;;122.80;75.25;;;;;;;;;;5036852;28;20060;-80
2022/01/25 05:06:51;;;;;;;122.45;71.75;;;;;;;;;;5027399;28;20021;-81
2022/01/25 05:09:19;;;;;;;113.47;71.03;;;;;;;;;;5023937;28;20491;-82
2022/01/25 05:11:47;;;;;;;125.85;71.78;;;;;;;;;;5042551;28;20029;-79
2022/01/25 05:14:23;;;;;;;121.28;71.30;;;;;;;;;;5023973;28;20025;-80
2022/01/25 05:16:55;;;;;;;118.07;70.72;;;;;;;;;;5023119;28;20013;-81
2022/01/25 05:19:35;;;;;;;121.70;70.72;;;;;;;;;;5026569;28;20049;-82
2022/01/25 05:22:18;;;;;;;118.38;71.18;;;;;;;;;;5042297;28;20021;-79
2022/01/25 05:24:44;;;;;;;115.07;69.88;;;;;;;;;;5024948;28;20009;-80
2022/01/25 05:27:11;;;;;;;113.07;70.10;;;;;;;;;;5029172;28;20055;-82
2022/01/25 05:29:37;;;;;;;116.65;70.60;;;;;;;;;;5021203;28;20064;-80
2022/01/25 05:32:02;;;;;;;135.63;75.97;;;;;;;;;;5033041;28;20047;-81
2022/01/25 05:34:28;;;;;;;121.40;71.07;;;;;;;;;;5018564;28;20130;-81
2022/01/25 05:36:53;;;;;;;120.00;72.60;;;;;;;;;;5027929;28;20017;-80
2022/01/25 05:39:31;;;;;;;111.13;70.77;;;;;;;;;;5030952;28;20052;-79
2022/01/25 05:42:19;;;;;;;113.38;73.43;;;;;;;;;;5032548;28;20017;-80
2022/01/25 05:45:10;;;;;;;123.38;72.93;;;;;;;;;;5017992;28;20152;-78
2022/01/25 05:47:35;;;;;;;125.28;74.30;;;;;;;;;;5022464;28;20083;-79
2022/01/25 05:50:01;;;;;;;131.40;73.87;;;;;;;;;;5022020;28;20060;-77
2022/01/25 05:52:26;;;;;;;123.20;74.00;;;;;;;;;;5025567;28;20028;-80
2022/01/25 05:54:51;;;;;;;120.93;71.70;;;;;;;;;;5020119;28;20017;-78
2022/01/25 05:57:17;;;;;;;135.73;75.47;;;;;;;;;;5028024;28;20032;-78
2022/01/25 05:59:42;;;;;;;125.33;74.10;;;;;;;;;;5029362;28;20040;-78
2022/01/25 06:02:08;;;;;;;124.17;72.77;;;;;;;;;;5036388;28;20009;-79
2022/01/25 06:04:33;;;;;;;126.87;72.50;;;;;;;;;;5031620;28;20071;-80
2022/01/25 06:06:58;;;;;;;125.07;72.17;;;;;;;;;;5039667;28;20080;-79
2022/01/25 06:09:24;;;;;;;130.20;74.03;;;;;;;;;;5029800;28;20382;-78
2022/01/25 06:11:50;;;;;;;123.03;72.88;;;;;;;;;;5029662;28;20112;-77
2022/01/25 06:14:16;;;;;;;115.03;70.10;;;;;;;;;;5028283;28;20029;-79
2022/01/25 06:16:41;;;;;;;120.53;73.13;;;;;;;;;;5025768;28;20507;-78
2022/01/25 06:19:06;;;;;;;123.35;72.10;;;;;;;;;;5053200;28;20026;-77
2022/01/25 06:21:31;;;;;;;118.87;71.07;;;;;;;;;;5034823;28;20381;-79
2022/01/25 06:23:56;;;;;;;120.87;73.30;;;;;;;;;;5028706;28;20095;-78
2022/01/25 06:26:22;;;;;;;134.50;76.40;;;;;;;;;;5034549;28;20021;-79
2022/01/25 06:28:47;;;;;;;119.57;70.63;;;;;;;;;;5036017;28;20478;-79
2022/01/25 06:31:14;;;;;;;117.97;71.33;;;;;;;;;;5031977;28;20025;-79
2022/01/25 06:33:42;;;;;;;123.80;74.47;;;;;;;;;;5027625;28;20025;-79
2022/01/25 06:36:07;;;;;;;129.50;75.13;;;;;;;;;;5048887;28;20028;-78
2022/01/25 06:38:32;;;;;;;120.83;71.87;;;;;;;;;;5037768;28;20013;-80
2022/01/25 06:40:58;;;;;;;116.27;72.90;;;;;;;;;;5042292;28;20021;-81
2022/01/25 06:43:26;;;;;;;166.60;82.80;;;;;;;;;;5094538;23;20036;-86
2022/01/25 06:45:56;;;;;;;116.18;70.93;;;;;;;;;;5019715;28;20598;-86
2022/01/25 06:50:51;;;;;;;119.13;70.55;;;;;;;;;;5059444;28;20184;-80
2022/01/25 06:53:17;;;;;;;119.93;71.13;;;;;;;;;;5031116;28;20025;-78
2022/01/25 06:55:42;;;;;;;131.37;73.20;;;;;;;;;;5019336;28;20017;-79
2022/01/25 06:58:08;;;;;;;118.17;71.77;;;;;;;;;;5021471;28;20028;-79
2022/01/25 07:00:33;;;;;;;111.53;73.57;;;;;;;;;;5038507;28;20020;-78
2022/01/25 07:03:01;;;;;;;120.13;71.57;;;;;;;;;;5039572;28;20023;-78
2022/01/25 07:05:29;;;;;;;116.80;72.75;;;;;;;;;;5025211;28;20120;-78
2022/01/25 07:07:54;;;;;;;121.80;71.63;;;;;;;;;;5026521;28;20013;-80
2022/01/25 07:10:20;;;;;;;122.97;73.23;;;;;;;;;;5025786;28;20097;-80
2022/01/25 07:12:45;;;;;;;133.50;73.97;;;;;;;;;;5024573;28;20448;-81
2022/01/25 07:15:11;;;;;;;116.30;71.03;;;;;;;;;;5021514;28;20447;-79
2022/01/25 07:17:36;;;;;;;109.13;70.93;;;;;;;;;;5023969;28;20031;-80
2022/01/25 07:20:02;;;;;;;108.50;69.23;;;;;;;;;;5026877;28;20014;-80
2022/01/25 07:22:27;;;;;;;119.65;70.78;;;;;;;;;;5045995;28;20037;-79
2022/01/25 07:24:52;;;;;;;125.23;72.10;;;;;;;;;;5037941;28;20462;-79
2022/01/25 07:27:18;;;;;;;117.43;69.40;;;;;;;;;;5022307;28;20028;-80
2022/01/25 07:29:45;;;;;;;127.27;72.50;;;;;;;;;;5023118;28;20021;-79
2022/01/25 07:32:10;;;;;;;124.93;72.05;;;;;;;;;;5041805;28;20029;-80
2022/01/25 07:34:36;;;;;;;131.83;71.33;;;;;;;;;;5021036;28;20030;-80
2022/01/25 07:37:01;;;;;;;128.17;73.37;;;;;;;;;;5039844;28;20025;-79
2022/01/25 07:39:32;;;;;;;111.97;71.30;;;;;;;;;;5014974;28;20026;-80
2022/01/25 07:42:00;;;;;;;144.15;81.70;;;;;;;;;;5022542;28;20076;-80
2022/01/25 07:44:30;;;;;;;136.82;76.60;;;;;;;;;;5017309;28;20063;-79
2022/01/25 07:46:57;;;;;;;127.45;72.47;;;;;;;;;;5038752;28;20081;-78
2022/01/25 07:49:23;;;;;;;119.18;73.15;;;;;;;;;;5028414;28;20045;-79
2022/01/25 07:51:48;;;;;;;118.95;72.32;;;;;;;;;;5030217;28;20021;-79
2022/01/25 07:54:14;;;;;;;141.07;76.63;;;;;;;;;;5041797;28;20033;-77
2022/01/25 07:56:39;;;;;;;121.47;72.70;;;;;;;;;;5031824;28;20100;-79
2022/01/25 07:59:04;;;;;;;139.43;74.03;;;;;;;;;;5024672;28;20064;-80
2022/01/25 08:01:29;;;;;;;121.80;70.97;;;;;;;;;;5042647;28;20100;-80
2022/01/25 08:03:57;;;;;;;130.87;74.23;;;;;;;;;;5040698;28;20021;-80
2022/01/25 08:06:23;;;;;;;137.23;73.00;;;;;;;;;;5022459;28;20077;-79
2022/01/25 08:08:52;;;;;;;136.23;77.17;;;;;;;;;;5037658;28;20075;-77
2022/01/25 08:11:18;;;;;;;142.10;76.75;;;;;;;;;;5039485;28;20021;-78
2022/01/25 08:13:48;;;;;;;128.20;74.70;;;;;;;;;;5010856;28;20112;-79
2022/01/25 08:16:13;;;;;;;174.68;82.35;;;;;;;;;;5033042;28;20112;-78
2022/01/25 08:18:38;;;;;;;177.70;82.93;;;;;;;;;;5020639;28;20911;-77
2022/01/25 08:21:04;;;;;;;172.73;80.73;;;;;;;;;;5039701;28;20475;-79
2022/01/25 08:23:29;;;;;;;137.53;77.47;;;;;;;;;;5022305;28;20505;-77
2022/01/25 08:25:54;;;;;;;154.80;76.87;;;;;;;;;;5019586;28;20100;-77
2022/01/25 08:28:20;;;;;;;122.90;70.93;;;;;;;;;;5026327;28;20056;-76
2022/01/25 08:30:46;;;;;;;149.80;76.85;;;;;;;;;;5024749;28;20410;-77
2022/01/25 08:33:11;;;;;;;127.87;73.17;;;;;;;;;;5024020;28;20034;-78
2022/01/25 08:35:36;;;;;;;128.47;69.97;;;;;;;;;;5023949;28;20117;-78
2022/01/25 08:38:02;;;;;;;118.33;70.00;;;;;;;;;;5028320;28;20024;-81
2022/01/25 08:40:29;;;;;;;126.23;71.90;;;;;;;;;;5031360;28;20021;-81
2022/01/25 08:42:54;;;;;;;121.55;69.68;;;;;;;;;;5026126;28;20068;-81
2022/01/25 08:45:19;;;;;;;116.03;71.90;;;;;;;;;;5025184;28;20124;-80
2022/01/25 08:47:45;;;;;;;129.80;71.77;;;;;;;;;;5025754;28;20017;-80
2022/01/25 08:50:10;;;;;;;109.50;68.67;;;;;;;;;;5026601;28;20029;-81
2022/01/25 08:52:36;;;;;;;131.00;73.10;;;;;;;;;;5024769;28;20190;-80
2022/01/25 08:55:01;;;;;;;124.13;70.82;;;;;;;;;;5005525;28;20029;-80
2022/01/25 08:57:26;;;;;;;120.03;73.27;;;;;;;;;;5021796;28;20060;-77
2022/01/25 08:59:51;;;;;;;121.60;69.97;;;;;;;;;;5019150;28;20109;-79
2022/01/25 09:02:17;;;;;;;120.10;70.43;;;;;;;;;;5020441;28;20025;-80
2022/01/25 09:04:42;;;;;;;135.98;76.55;;;;;;;;;;5017671;28;20021;-80
2022/01/25 09:07:07;;;;;;;122.47;71.53;;;;;;;;;;5024143;28;20112;-79
2022/01/25 09:09:33;;;;;;;121.53;70.27;;;;;;;;;;5021681;28;20032;-79
2022/01/25 09:11:58;;;;;;;130.70;73.72;;;;;;;;;;5024147;28;20213;-80
2022/01/25 09:14:24;;;;;;;142.67;76.17;;;;;;;;;;5019738;28;20034;-80
2022/01/25 09:16:49;;;;;;;115.33;71.93;;;;;;;;;;5020854;28;20025;-80
2022/01/25 09:19:15;;;;;;;124.20;72.37;;;;;;;;;;5031922;28;20274;-79
2022/01/25 09:21:40;;;;;;;121.40;71.00;;;;;;;;;;5049477;28;20273;-80
2022/01/25 09:24:06;;;;;;;132.53;73.77;;;;;;;;;;5031123;28;20017;-79
2022/01/25 09:26:31;;;;;;;119.03;71.53;;;;;;;;;;5029929;28;20048;-79
2022/01/25 09:28:58;;;;;;;123.10;70.93;;;;;;;;;;5025858;28;20029;-80
2022/01/25 09:31:23;;;;;;;123.07;72.50;;;;;;;;;;5026411;28;20025;-78
2022/01/25 09:33:48;;;;;;;123.20;71.97;;;;;;;;;;5024233;28;20029;-79
2022/01/25 09:36:14;;;;;;;121.20;72.13;;;;;;;;;;5022543;28;20083;-79
2022/01/25 09:38:39;;;;;;;120.90;70.73;;;;;;;;;;5041724;28;20094;-81
2022/01/25 09:41:04;;;;;;;120.60;70.80;;;;;;;;;;5039626;28;20089;-81
2022/01/25 09:43:30;;;;;;;113.03;71.57;;;;;;;;;;5024993;28;20171;-81
2022/01/25 09:45:56;;;;;;;118.50;71.13;;;;;;;;;;5023106;28;20017;-80
2022/01/25 09:48:21;;;;;;;118.40;71.47;;;;;;;;;;5021170;28;20064;-81
2022/01/25 09:50:47;;;;;;;118.40;69.90;;;;;;;;;;5020745;28;20729;-79
2022/01/25 09:53:12;;;;;;;123.80;71.87;;;;;;;;;;5019919;28;20029;-79
2022/01/25 09:55:41;;;;;;;119.70;69.70;;;;;;;;;;5034057;28;20072;-79
2022/01/25 09:58:07;;;;;;;112.95;70.82;;;;;;;;;;5019482;28;20024;-80
2022/01/25 10:00:33;;;;;;;112.75;71.38;;;;;;;;;;5019030;28;20024;-80
2022/01/25 10:03:14;;;;;;;123.18;71.85;;;;;;;;;;5017917;28;20517;-80
2022/01/25 10:05:42;;;;;;;120.28;69.28;;;;;;;;;;5036200;28;20077;-80
2022/01/25 10:08:10;;;;;;;111.90;70.63;;;;;;;;;;5019471;28;20490;-82
2022/01/25 10:10:38;;;;;;;109.40;69.13;;;;;;;;;;5037629;28;20140;-80
2022/01/25 10:13:06;;;;;;;108.22;67.72;;;;;;;;;;5020134;28;20021;-80
2022/01/25 10:15:32;;;;;;;97.18;66.93;;;;;;;;;;5015861;28;20025;-81
2022/01/25 10:17:57;;;;;;;111.07;67.37;;;;;;;;;;5015850;28;20024;-80
2022/01/25 10:20:27;;;;;;;99.10;67.47;;;;;;;;;;5018901;28;20024;-81
2022/01/25 10:22:53;;;;;;;111.07;68.80;;;;;;;;;;5018828;28;20018;-81
2022/01/25 10:25:33;;;;;;;105.37;67.47;;;;;;;;;;5014868;28;20048;-80
2022/01/25 10:27:59;;;;;;;100.03;65.53;;;;;;;;;;5007356;28;20026;-80
2022/01/25 10:30:24;;;;;;;109.63;67.63;;;;;;;;;;5017956;28;20022;-81
2022/01/25 10:32:51;;;;;;;107.77;68.00;;;;;;;;;;5020026;28;20030;-80
2022/01/25 10:35:17;;;;;;;99.55;67.10;;;;;;;;;;5019163;28;20038;-80
2022/01/25 10:37:42;;;;;;;91.68;65.13;;;;;;;;;;5020884;28;20030;-80
2022/01/25 10:40:07;;;;;;;117.93;68.63;;;;;;;;;;5033797;28;20010;-79
2022/01/25 10:42:34;;;;;;;111.40;67.93;;;;;;;;;;5040391;28;20013;-80
2022/01/25 10:45:08;;;;;;;106.35;68.22;;;;;;;;;;5038758;28;20022;-79
2022/01/25 10:47:44;;;;;;;98.78;67.05;;;;;;;;;;5057406;28;20013;-77
2022/01/25 10:50:20;;;;;;;109.63;70.47;;;;;;;;;;5040875;28;20056;-79
2022/01/25 10:52:46;;;;;;;126.95;72.20;;;;;;;;;;5039766;28;20009;-79
2022/01/25 10:55:12;;;;;;;102.60;69.90;;;;;;;;;;5039933;28;20005;-79
2022/01/25 10:57:37;;;;;;;98.28;64.82;;;;;;;;;;5050452;28;20025;-78
2022/01/25 11:00:12;;;;;;;100.97;66.30;;;;;;;;;;5040013;28;20021;-79
2022/01/25 11:02:48;;;;;;;110.60;68.50;;;;;;;;;;5033833;28;20025;-79
2022/01/25 11:05:13;;;;;;;101.82;68.68;;;;;;;;;;5025519;28;20493;-79
2022/01/25 11:07:40;;;;;;;99.68;67.65;;;;;;;;;;5025573;28;20079;-81
2022/01/25 11:10:05;;;;;;;;;;;;;;;;;;5041546;28;20025;-77
2022/01/25 11:12:36;;;;;;;100.65;65.20;;;;;;;;;;5018538;28;20374;-76
2022/01/25 11:15:02;;;;;;;115.55;69.85;;;;;;;;;;5015064;28;20083;-77
2022/01/25 11:17:28;;;;;;;114.80;67.97;;;;;;;;;;5017007;28;20025;-77
2022/01/25 11:19:54;;;;;;;118.78;70.95;;;;;;;;;;5041635;28;20506;-78
2022/01/25 11:22:19;;;;;;;106.25;68.90;;;;;;;;;;5042427;28;20013;-78
2022/01/25 11:24:48;;;;;;;112.87;69.23;;;;;;;;;;5019266;28;20032;-79
2022/01/25 11:27:13;;;;;;;99.65;67.05;;;;;;;;;;5039281;28;20130;-81
2022/01/25 11:29:39;;;;;;;116.57;66.33;;;;;;;;;;5023445;28;20018;-79
2022/01/25 11:32:06;;;;;;;101.18;66.15;;;;;;;;;;5023987;28;20250;-81
2022/01/25 11:34:31;;;;;;;;;;;;;;;;;;5035909;28;20042;-81
2022/01/25 11:37:02;;;;;;;100.00;65.97;;;;;;;;;;5014675;28;19964;-81
2022/01/25 11:39:27;;;;;;;98.82;66.95;;;;;;;;;;5037233;28;20266;-80
2022/01/25 11:42:10;;;;;;;100.32;67.63;;;;;;;;;;5050873;28;20018;-81
2022/01/25 11:44:45;;;;;;;104.50;68.30;;;;;;;;;;5028851;28;20026;-82
2022/01/25 11:47:12;;;;;;;101.50;67.13;;;;;;;;;;5031207;28;20159;-81
2022/01/25 11:49:49;;;;;;;103.28;66.78;;;;;;;;;;5024693;28;20029;-82
2022/01/25 11:52:15;;;;;;;107.25;68.43;;;;;;;;;;5013342;28;20022;-81
2022/01/25 11:54:41;;;;;;;113.93;69.07;;;;;;;;;;5025207;28;20021;-81
2022/01/25 11:57:17;;;;;;;100.43;65.90;;;;;;;;;;5022781;28;20014;-81
2022/01/25 11:59:48;;;;;;;95.47;64.57;;;;;;;;;;5039302;28;20132;-83
2022/01/25 12:02:33;;;;;;;108.38;67.75;;;;;;;;;;5021276;28;20282;-81
2022/01/25 12:05:03;;;;;;;96.43;64.55;;;;;;;;;;5020496;28;20018;-82
2022/01/25 12:07:35;;;;;;;98.43;65.68;;;;;;;;;;5023528;28;20018;-80
2022/01/25 12:10:12;;;;;;;103.45;67.15;;;;;;;;;;5023793;28;20021;-83
2022/01/25 12:12:40;;;;;;;106.88;68.10;;;;;;;;;;5040320;28;20027;-81
2022/01/25 12:15:17;;;;;;;104.53;66.75;;;;;;;;;;5009061;28;20027;-79
2022/01/25 12:17:42;;;;;;;101.07;65.13;;;;;;;;;;5029989;28;20025;-81
2022/01/25 12:20:18;;;;;;;110.23;67.53;;;;;;;;;;5023273;28;20024;-82
2022/01/25 12:22:47;;;;;;;108.43;67.30;;;;;;;;;;5039963;28;20025;-82
2022/01/25 12:25:19;;;;;;;99.45;65.70;;;;;;;;;;5040507;28;20020;-81
2022/01/25 12:27:53;;;;;;;94.55;65.43;;;;;;;;;;5040280;28;20077;-80
2022/01/25 12:30:18;;;;;;;95.18;64.60;;;;;;;;;;5022186;28;20483;-80
2022/01/25 12:32:43;;;;;;;104.77;67.17;;;;;;;;;;5021772;28;20021;-82
2022/01/25 12:35:10;;;;;;;94.13;63.65;;;;;;;;;;5021762;28;20036;-81
2022/01/25 12:37:42;;;;;;;83.88;62.28;;;;;;;;;;5020929;28;20502;-81
2022/01/25 12:40:25;;;;;;;89.32;64.60;;;;;;;;;;5020426;28;20029;-83
2022/01/25 12:42:51;;;;;;;94.05;63.67;;;;;;;;;;5021927;28;20437;-80
2022/01/25 12:48:31;;;;;;;94.72;64.93;;;;;;;;;;5008032;22;20053;-78
2022/01/25 12:50:58;;;;;;;85.78;62.80;;;;;;;;;;5019646;28;20022;-79
2022/01/25 12:53:24;;;;;;;92.95;64.47;;;;;;;;;;5019215;28;20017;-80
2022/01/25 12:55:51;;;;;;;91.65;63.92;;;;;;;;;;5010133;28;20162;-78
2022/01/25 12:58:24;;;;;;;92.25;64.00;;;;;;;;;;5009242;28;20049;-80
2022/01/25 13:00:51;;;;;;;84.97;64.00;;;;;;;;;;5033434;28;20029;-80
2022/01/25 13:03:27;;;;;;;88.95;62.03;;;;;;;;;;5035463;28;20023;-80
2022/01/25 13:05:54;;;;;;;93.90;64.30;;;;;;;;;;5014940;28;20021;-79
2022/01/25 13:08:26;;;;;;;84.70;62.83;;;;;;;;;;5034819;28;20103;-79
2022/01/25 13:10:54;;;;;;;82.93;62.20;;;;;;;;;;5032260;28;20024;-80
2022/01/25 13:13:29;;;;;;;79.95;60.55;;;;;;;;;;5018510;28;20017;-79
2022/01/25 13:15:56;;;;;;;87.97;65.57;;;;;;;;;;5009846;28;20029;-79
2022/01/25 13:18:22;;;;;;;81.85;60.95;;;;;;;;;;5009188;28;20051;-75
2022/01/25 13:20:57;;;;;;;79.00;61.17;;;;;;;;;;5021818;28;20661;-78
2022/01/25 13:23:23;;;;;;;81.35;62.38;;;;;;;;;;5041142;28;20017;-79
2022/01/25 13:28:39;;;;;;;77.85;60.97;;;;;;;;;;5033614;28;20025;-77
2022/01/25 13:31:09;;;;;;;73.03;59.90;;;;;;;;;;5042009;28;20104;-76
2022/01/25 13:33:35;;;;;;;80.53;61.53;;;;;;;;;;5026480;28;20048;-78
2022/01/25 13:36:01;;;;;;;78.45;60.50;;;;;;;;;;5017658;28;20018;-78
2022/01/25 13:38:26;;;;;;;;;;;;;;;;;;5032984;28;20056;-78
2022/01/25 13:41:01;;;;;;;79.50;59.73;;;;;;;;;;5017675;28;19905;-78
2022/01/25 13:45:56;;;;;;;83.45;60.17;;;;;;;;;;5029699;28;20458;-79
2022/01/25 13:48:24;;;;;;;80.78;60.22;;;;;;;;;;5013779;28;20029;-79
2022/01/25 13:50:52;;;;;;;77.47;60.30;;;;;;;;;;5016918;28;20018;-79
2022/01/25 13:53:18;;;;;;;73.70;59.13;;;;;;;;;;5038216;28;20025;-81
2022/01/25 13:55:48;;;;;;;76.90;58.60;;;;;;;;;;5013551;28;20049;-78
2022/01/25 13:58:20;;;;;;;83.55;62.80;;;;;;;;;;5015541;28;20075;-78
2022/01/25 14:00:46;;;;;;;73.05;59.00;;;;;;;;;;5016039;28;20022;-78
2022/01/25 14:03:12;;;;;;;76.80;59.17;;;;;;;;;;5017835;28;20028;-79
2022/01/25 14:05:37;;;;;;;;;;;;;;;;;;5015396;28;20053;-76
2022/01/25 14:08:03;;;;;;;72.47;57.95;;;;;;;;;;5007056;28;19911;-77
2022/01/25 14:10:29;;;;;;;79.00;58.37;;;;;;;;;;5009613;28;20118;-78
2022/01/25 14:23:55;;;;;;;106.57;65.63;;;;;;;;;;5032389;28;20367;-79
2022/01/25 14:26:20;;;;;;;81.40;58.78;;;;;;;;;;5006619;28;20026;-79
2022/01/25 14:28:54;;;;;;;78.10;60.47;;;;;;;;;;5012019;28;20022;-80
2022/01/25 14:31:23;;;;;;;71.95;57.58;;;;;;;;;;5016425;28;20025;-78
2022/01/25 14:33:53;;;;;;;70.07;57.30;;;;;;;;;;5016223;28;20079;-79
2022/01/25 14:36:19;;;;;;;75.15;56.95;;;;;;;;;;5014485;28;20031;-80
2022/01/25 14:38:45;;;;;;;77.15;57.83;;;;;;;;;;5030977;28;20114;-78
2022/01/25 14:41:10;;;;;;;63.40;55.97;;;;;;;;;;5018436;28;20034;-78
2022/01/25 14:43:49;;;;;;;76.27;57.77;;;;;;;;;;5028723;28;20037;-80
2022/01/25 14:46:25;;;;;;;71.45;56.47;;;;;;;;;;5013603;28;20081;-77
2022/01/25 14:48:56;;;;;;;75.07;57.53;;;;;;;;;;5011701;28;20022;-80
2022/01/25 14:51:21;;;;;;;71.20;56.95;;;;;;;;;;5017651;28;20263;-79
2022/01/25 14:53:52;;;;;;;69.20;57.10;;;;;;;;;;5016737;28;20402;-79
2022/01/25 14:56:17;;;;;;;76.50;59.50;;;;;;;;;;5013988;28;20030;-80
2022/01/25 15:01:19;;;;;;;61.20;54.58;;;;;;;;;;5036609;28;20030;-79
2022/01/25 15:03:45;;;;;;;69.25;57.50;;;;;;;;;;5021021;28;20454;-78
2022/01/25 15:06:14;;;;;;;71.03;57.87;;;;;;;;;;5027039;28;20090;-78
2022/01/25 15:08:47;;;;;;;68.30;57.78;;;;;;;;;;5010853;28;20255;-77
2022/01/25 15:11:12;;;;;;;72.72;58.30;;;;;;;;;;5021620;28;20025;-79
2022/01/25 15:13:39;;;;;;;73.03;57.67;;;;;;;;;;5046922;28;20022;-78
2022/01/25 15:16:05;;;;;;;72.32;56.53;;;;;;;;;;5044036;28;20018;-79
2022/01/25 15:18:32;;;;;;;64.83;55.63;;;;;;;;;;5023956;28;20094;-78
2022/01/25 15:20:58;;;;;;;68.22;55.80;;;;;;;;;;5043662;28;20014;-79
2022/01/25 15:23:24;;;;;;;74.53;57.22;;;;;;;;;;5034058;28;20047;-77
2022/01/25 15:25:55;;;;;;;72.07;57.65;;;;;;;;;;5044146;28;20040;-75
2022/01/25 15:28:22;;;;;;;68.05;56.42;;;;;;;;;;5041016;28;20021;-77
2022/01/25 15:30:47;;;;;;;69.25;57.17;;;;;;;;;;5056350;28;20032;-77
2022/01/25 15:33:12;;;;;;;67.43;56.20;;;;;;;;;;5060936;28;20068;-77
2022/01/25 15:35:38;;;;;;;73.90;57.63;;;;;;;;;;5036906;28;20021;-76
2022/01/25 15:38:03;;;;;;;61.15;54.47;;;;;;;;;;5041409;28;20075;-77
2022/01/25 15:40:30;;;;;;;71.87;57.50;;;;;;;;;;5046257;28;20013;-78
2022/01/25 15:42:56;;;;;;;66.60;56.60;;;;;;;;;;5038451;28;20071;-76
2022/01/25 15:45:30;;;;;;;71.53;57.67;;;;;;;;;;5037824;28;20006;-79
2022/01/25 15:47:56;;;;;;;68.10;55.95;;;;;;;;;;5057217;28;20037;-78
2022/01/25 15:50:23;;;;;;;69.05;56.95;;;;;;;;;;5050411;28;20065;-78
2022/01/25 15:52:49;;;;;;;84.25;59.70;;;;;;;;;;5035470;28;20062;-79
2022/01/25 15:55:14;;;;;;;79.47;58.20;;;;;;;;;;5019714;28;20021;-78
2022/01/25 15:57:39;;;;;;;68.93;55.30;;;;;;;;;;5017365;28;20026;-79
2022/01/25 16:00:05;;;;;;;67.70;55.67;;;;;;;;;;5029051;28;20026;-79
2022/01/25 16:02:31;;;;;;;76.38;59.13;;;;;;;;;;5015255;28;20029;-80
2022/01/25 16:04:56;;;;;;;83.33;60.50;;;;;;;;;;5030736;28;20021;-80